sensor_id;sensor_type;location;lat;lon;timestamp;temperature;humidity
5280;DHT22;2663;53.588;10.010;2024-01-07T00:01:03;1.30;99.90
5280;DHT22;2663;53.588;10.010;2024-01-07T00:03:30;1.30;99.90
5280;DHT22;2663;53.588;10.010;2024-01-07T00:05:57;1.30;99.90
5280;DHT22;2663;53.588;10.010;2024-01-07T00:08:24;1.30;99.90
5280;DHT22;2663;53.588;10.010;2024-01-07T00:10:50;1.40;99.90
5280;DHT22;2663;53.588;10.010;2024-01-07T00:13:20;1.20;99.90
5280;DHT22;2663;53.588;10.010;2024-01-07T00:15:47;2.20;99.90
5280;DHT22;2663;53.588;10.010;2024-01-07T00:18:13;1.20;99.90
5280;DHT22;2663;53.588;10.010;2024-01-07T00:20:40;1.20;99.90
5280;DHT22;2663;53.588;10.010;2024-01-07T00:23:11;1.20;99.90
5280;DHT22;2663;53.588;10.010;2024-01-07T00:25:37;1.20;99.90
5280;DHT22;2663;53.588;10.010;2024-01-07T00:28:04;1.10;99.90
5280;DHT22;2663;53.588;10.010;2024-01-07T00:30:31;1.10;99.90
5280;DHT22;2663;53.588;10.010;2024-01-07T00:32:58;1.10;99.90
5280;DHT22;2663;53.588;10.010;2024-01-07T00:35:25;1.10;99.90
5280;DHT22;2663;53.588;10.010;2024-01-07T00:37:51;0.50;99.90
5280;DHT22;2663;53.588;10.010;2024-01-07T00:40:18;1.20;99.90
5280;DHT22;2663;53.588;10.010;2024-01-07T00:42:45;1.30;99.90
5280;DHT22;2663;53.588;10.010;2024-01-07T00:45:12;1.20;99.90
5280;DHT22;2663;53.588;10.010;2024-01-07T00:47:38;1.20;99.90
5280;DHT22;2663;53.588;10.010;2024-01-07T00:50:05;1.20;99.90
5280;DHT22;2663;53.588;10.010;2024-01-07T00:52:32;1.20;99.90
5280;DHT22;2663;53.588;10.010;2024-01-07T00:54:59;1.20;99.90
5280;DHT22;2663;53.588;10.010;2024-01-07T00:57:27;1.20;99.90
5280;DHT22;2663;53.588;10.010;2024-01-07T00:59:53;0.50;99.90
5280;DHT22;2663;53.588;10.010;2024-01-07T01:02:20;1.20;99.90
5280;DHT22;2663;53.588;10.010;2024-01-07T01:04:47;1.20;99.90
5280;DHT22;2663;53.588;10.010;2024-01-07T01:07:14;1.40;99.90
5280;DHT22;2663;53.588;10.010;2024-01-07T01:09:41;1.20;99.90
5280;DHT22;2663;53.588;10.010;2024-01-07T01:12:08;1.10;99.90
5280;DHT22;2663;53.588;10.010;2024-01-07T01:14:34;1.20;99.90
5280;DHT22;2663;53.588;10.010;2024-01-07T01:17:01;1.10;99.90
5280;DHT22;2663;53.588;10.010;2024-01-07T01:19:28;1.10;99.90
5280;DHT22;2663;53.588;10.010;2024-01-07T01:21:55;1.20;99.90
5280;DHT22;2663;53.588;10.010;2024-01-07T01:24:22;1.10;99.90
5280;DHT22;2663;53.588;10.010;2024-01-07T01:26:49;1.10;99.90
5280;DHT22;2663;53.588;10.010;2024-01-07T01:29:15;1.10;99.90
5280;DHT22;2663;53.588;10.010;2024-01-07T01:31:42;1.10;99.90
5280;DHT22;2663;53.588;10.010;2024-01-07T01:34:09;1.40;99.90
5280;DHT22;2663;53.588;10.010;2024-01-07T01:36:36;1.10;99.90
5280;DHT22;2663;53.588;10.010;2024-01-07T01:39:03;1.10;99.90
5280;DHT22;2663;53.588;10.010;2024-01-07T01:41:29;2.50;99.90
5280;DHT22;2663;53.588;10.010;2024-01-07T01:44:00;1.10;99.90
5280;DHT22;2663;53.588;10.010;2024-01-07T01:46:29;1.10;99.90
5280;DHT22;2663;53.588;10.010;2024-01-07T01:48:56;1.10;99.90
5280;DHT22;2663;53.588;10.010;2024-01-07T01:51:24;1.10;99.90
5280;DHT22;2663;53.588;10.010;2024-01-07T01:53:51;1.00;99.90
5280;DHT22;2663;53.588;10.010;2024-01-07T01:56:20;1.00;99.90
5280;DHT22;2663;53.588;10.010;2024-01-07T01:58:47;1.00;99.90
5280;DHT22;2663;53.588;10.010;2024-01-07T02:01:17;1.10;99.90
5280;DHT22;2663;53.588;10.010;2024-01-07T02:03:44;1.20;99.90
5280;DHT22;2663;53.588;10.010;2024-01-07T02:06:10;1.10;99.90
5280;DHT22;2663;53.588;10.010;2024-01-07T02:08:39;1.10;99.90
5280;DHT22;2663;53.588;10.010;2024-01-07T02:11:20;1.30;99.90
5280;DHT22;2663;53.588;10.010;2024-01-07T02:13:48;1.20;99.90
5280;DHT22;2663;53.588;10.010;2024-01-07T02:16:15;1.20;99.90
5280;DHT22;2663;53.588;10.010;2024-01-07T02:18:43;1.10;99.90
5280;DHT22;2663;53.588;10.010;2024-01-07T02:21:10;3.10;99.90
5280;DHT22;2663;53.588;10.010;2024-01-07T02:23:37;1.50;99.90
5280;DHT22;2663;53.588;10.010;2024-01-07T02:26:04;1.30;99.90
5280;DHT22;2663;53.588;10.010;2024-01-07T02:28:32;1.30;99.90
5280;DHT22;2663;53.588;10.010;2024-01-07T02:30:59;1.30;99.90
5280;DHT22;2663;53.588;10.010;2024-01-07T02:33:26;1.30;99.90
5280;DHT22;2663;53.588;10.010;2024-01-07T02:35:53;1.20;99.90
5280;DHT22;2663;53.588;10.010;2024-01-07T02:38:20;1.30;99.90
5280;DHT22;2663;53.588;10.010;2024-01-07T02:40:47;1.30;99.90
5280;DHT22;2663;53.588;10.010;2024-01-07T02:43:13;1.30;99.90
5280;DHT22;2663;53.588;10.010;2024-01-07T02:45:40;1.30;99.90
5280;DHT22;2663;53.588;10.010;2024-01-07T02:48:07;1.20;99.90
5280;DHT22;2663;53.588;10.010;2024-01-07T02:50:34;1.20;99.90
5280;DHT22;2663;53.588;10.010;2024-01-07T02:53:00;1.30;99.90
5280;DHT22;2663;53.588;10.010;2024-01-07T02:55:27;1.30;99.90
5280;DHT22;2663;53.588;10.010;2024-01-07T02:57:54;1.30;99.90
5280;DHT22;2663;53.588;10.010;2024-01-07T03:00:20;1.30;99.90
5280;DHT22;2663;53.588;10.010;2024-01-07T03:02:47;1.40;99.90
5280;DHT22;2663;53.588;10.010;2024-01-07T03:05:14;1.40;99.90
5280;DHT22;2663;53.588;10.010;2024-01-07T03:07:41;1.40;99.90
5280;DHT22;2663;53.588;10.010;2024-01-07T03:10:08;1.70;99.90
5280;DHT22;2663;53.588;10.010;2024-01-07T03:12:34;1.50;99.90
5280;DHT22;2663;53.588;10.010;2024-01-07T03:15:01;1.50;99.90
5280;DHT22;2663;53.588;10.010;2024-01-07T03:17:28;1.50;99.90
5280;DHT22;2663;53.588;10.010;2024-01-07T03:19:55;1.40;99.90
5280;DHT22;2663;53.588;10.010;2024-01-07T03:22:21;1.40;99.90
5280;DHT22;2663;53.588;10.010;2024-01-07T03:24:48;1.40;99.90
5280;DHT22;2663;53.588;10.010;2024-01-07T03:27:15;1.40;99.90
5280;DHT22;2663;53.588;10.010;2024-01-07T03:29:42;1.50;99.90
5280;DHT22;2663;53.588;10.010;2024-01-07T03:32:08;1.50;99.90
5280;DHT22;2663;53.588;10.010;2024-01-07T03:34:35;1.60;99.90
5280;DHT22;2663;53.588;10.010;2024-01-07T03:37:02;1.60;99.90
5280;DHT22;2663;53.588;10.010;2024-01-07T03:39:32;1.60;99.90
5280;DHT22;2663;53.588;10.010;2024-01-07T03:42:00;1.90;99.90
5280;DHT22;2663;53.588;10.010;2024-01-07T03:44:27;1.80;99.90
5280;DHT22;2663;53.588;10.010;2024-01-07T03:46:53;1.70;99.90
5280;DHT22;2663;53.588;10.010;2024-01-07T03:49:20;2.00;99.90
5280;DHT22;2663;53.588;10.010;2024-01-07T03:51:47;1.70;99.90
5280;DHT22;2663;53.588;10.010;2024-01-07T03:54:13;1.60;99.90
5280;DHT22;2663;53.588;10.010;2024-01-07T03:56:40;1.80;99.90
5280;DHT22;2663;53.588;10.010;2024-01-07T03:59:07;3.20;99.90
5280;DHT22;2663;53.588;10.010;2024-01-07T04:01:34;1.60;99.90
5280;DHT22;2663;53.588;10.010;2024-01-07T04:04:01;1.70;99.90
5280;DHT22;2663;53.588;10.010;2024-01-07T04:06:28;1.70;99.90
5280;DHT22;2663;53.588;10.010;2024-01-07T04:08:55;1.70;99.90
5280;DHT22;2663;53.588;10.010;2024-01-07T04:11:22;1.80;99.90
5280;DHT22;2663;53.588;10.010;2024-01-07T04:13:48;2.50;99.90
5280;DHT22;2663;53.588;10.010;2024-01-07T04:16:16;1.80;99.90
5280;DHT22;2663;53.588;10.010;2024-01-07T04:18:44;1.80;99.90
5280;DHT22;2663;53.588;10.010;2024-01-07T04:21:16;1.80;99.90
5280;DHT22;2663;53.588;10.010;2024-01-07T04:23:42;1.80;99.90
5280;DHT22;2663;53.588;10.010;2024-01-07T04:26:10;1.80;99.90
5280;DHT22;2663;53.588;10.010;2024-01-07T04:28:40;1.90;99.90
5280;DHT22;2663;53.588;10.010;2024-01-07T04:31:07;1.90;99.90
5280;DHT22;2663;53.588;10.010;2024-01-07T04:33:34;2.00;99.90
5280;DHT22;2663;53.588;10.010;2024-01-07T04:36:01;2.00;99.90
5280;DHT22;2663;53.588;10.010;2024-01-07T04:38:28;2.10;99.90
5280;DHT22;2663;53.588;10.010;2024-01-07T04:40:55;4.30;99.90
5280;DHT22;2663;53.588;10.010;2024-01-07T04:43:22;2.10;99.90
5280;DHT22;2663;53.588;10.010;2024-01-07T04:45:49;0.60;99.90
5280;DHT22;2663;53.588;10.010;2024-01-07T04:48:15;2.20;99.90
5280;DHT22;2663;53.588;10.010;2024-01-07T04:50:42;2.30;99.90
5280;DHT22;2663;53.588;10.010;2024-01-07T04:53:09;2.30;99.90
5280;DHT22;2663;53.588;10.010;2024-01-07T04:55:36;2.30;99.90
5280;DHT22;2663;53.588;10.010;2024-01-07T04:58:03;2.30;99.90
5280;DHT22;2663;53.588;10.010;2024-01-07T05:00:31;2.30;99.90
5280;DHT22;2663;53.588;10.010;2024-01-07T05:02:58;2.30;99.90
5280;DHT22;2663;53.588;10.010;2024-01-07T05:05:25;2.40;99.90
5280;DHT22;2663;53.588;10.010;2024-01-07T05:07:52;2.40;99.90
5280;DHT22;2663;53.588;10.010;2024-01-07T05:10:19;2.40;99.90
5280;DHT22;2663;53.588;10.010;2024-01-07T05:12:45;2.40;99.90
5280;DHT22;2663;53.588;10.010;2024-01-07T05:15:12;2.40;99.90
5280;DHT22;2663;53.588;10.010;2024-01-07T05:17:39;2.40;99.90
5280;DHT22;2663;53.588;10.010;2024-01-07T05:20:06;2.60;99.90
5280;DHT22;2663;53.588;10.010;2024-01-07T05:22:33;1.90;99.90
5280;DHT22;2663;53.588;10.010;2024-01-07T05:25:00;2.40;99.90
5280;DHT22;2663;53.588;10.010;2024-01-07T05:27:27;2.40;99.90
5280;DHT22;2663;53.588;10.010;2024-01-07T05:29:54;2.40;99.90
5280;DHT22;2663;53.588;10.010;2024-01-07T05:32:22;2.50;99.90
5280;DHT22;2663;53.588;10.010;2024-01-07T05:34:49;2.50;99.90
5280;DHT22;2663;53.588;10.010;2024-01-07T05:37:17;3.40;99.90
5280;DHT22;2663;53.588;10.010;2024-01-07T05:39:44;2.80;99.90
5280;DHT22;2663;53.588;10.010;2024-01-07T05:42:10;2.60;99.90
5280;DHT22;2663;53.588;10.010;2024-01-07T05:44:37;2.50;99.90
5280;DHT22;2663;53.588;10.010;2024-01-07T05:47:04;2.50;99.90
5280;DHT22;2663;53.588;10.010;2024-01-07T05:49:31;2.50;99.90
5280;DHT22;2663;53.588;10.010;2024-01-07T05:51:58;2.40;99.90
5280;DHT22;2663;53.588;10.010;2024-01-07T05:54:25;2.50;99.90
5280;DHT22;2663;53.588;10.010;2024-01-07T05:56:53;2.40;99.90
5280;DHT22;2663;53.588;10.010;2024-01-07T05:59:20;2.40;99.90
5280;DHT22;2663;53.588;10.010;2024-01-07T06:01:47;2.60;99.90
5280;DHT22;2663;53.588;10.010;2024-01-07T06:04:14;2.40;99.90
5280;DHT22;2663;53.588;10.010;2024-01-07T06:06:41;2.40;99.90
5280;DHT22;2663;53.588;10.010;2024-01-07T06:09:07;2.20;99.90
5280;DHT22;2663;53.588;10.010;2024-01-07T06:11:34;2.40;99.90
5280;DHT22;2663;53.588;10.010;2024-01-07T06:14:01;2.40;99.90
5280;DHT22;2663;53.588;10.010;2024-01-07T06:16:28;2.40;99.90
5280;DHT22;2663;53.588;10.010;2024-01-07T06:18:54;2.60;99.90
5280;DHT22;2663;53.588;10.010;2024-01-07T06:21:21;2.70;99.90
5280;DHT22;2663;53.588;10.010;2024-01-07T06:23:48;2.40;99.90
5280;DHT22;2663;53.588;10.010;2024-01-07T06:26:15;2.40;99.90
5280;DHT22;2663;53.588;10.010;2024-01-07T06:28:42;2.30;99.90
5280;DHT22;2663;53.588;10.010;2024-01-07T06:31:09;2.50;99.90
5280;DHT22;2663;53.588;10.010;2024-01-07T06:33:36;2.30;99.90
5280;DHT22;2663;53.588;10.010;2024-01-07T06:36:03;3.40;99.90
5280;DHT22;2663;53.588;10.010;2024-01-07T06:38:30;2.20;99.90
5280;DHT22;2663;53.588;10.010;2024-01-07T06:40:57;2.30;99.90
5280;DHT22;2663;53.588;10.010;2024-01-07T06:43:30;2.40;99.90
5280;DHT22;2663;53.588;10.010;2024-01-07T06:45:57;2.30;99.90
5280;DHT22;2663;53.588;10.010;2024-01-07T06:48:23;2.20;99.90
5280;DHT22;2663;53.588;10.010;2024-01-07T06:50:50;2.20;99.90
5280;DHT22;2663;53.588;10.010;2024-01-07T06:53:17;2.20;99.90
5280;DHT22;2663;53.588;10.010;2024-01-07T06:55:44;-0.20;99.90
5280;DHT22;2663;53.588;10.010;2024-01-07T06:58:10;2.20;99.90
5280;DHT22;2663;53.588;10.010;2024-01-07T07:00:37;2.20;99.90
5280;DHT22;2663;53.588;10.010;2024-01-07T07:03:04;2.20;99.90
5280;DHT22;2663;53.588;10.010;2024-01-07T07:05:32;2.30;99.90
5280;DHT22;2663;53.588;10.010;2024-01-07T07:07:59;2.30;99.90
5280;DHT22;2663;53.588;10.010;2024-01-07T07:10:25;2.40;99.90
5280;DHT22;2663;53.588;10.010;2024-01-07T07:12:52;2.30;99.90
5280;DHT22;2663;53.588;10.010;2024-01-07T07:15:19;2.30;99.90
5280;DHT22;2663;53.588;10.010;2024-01-07T07:17:46;2.40;99.90
5280;DHT22;2663;53.588;10.010;2024-01-07T07:20:12;2.60;99.90
5280;DHT22;2663;53.588;10.010;2024-01-07T07:22:39;2.30;99.90
5280;DHT22;2663;53.588;10.010;2024-01-07T07:25:06;2.20;99.90
5280;DHT22;2663;53.588;10.010;2024-01-07T07:27:33;2.30;99.90
5280;DHT22;2663;53.588;10.010;2024-01-07T07:30:00;2.20;99.90
5280;DHT22;2663;53.588;10.010;2024-01-07T07:32:27;2.20;99.90
5280;DHT22;2663;53.588;10.010;2024-01-07T07:34:54;2.20;99.90
5280;DHT22;2663;53.588;10.010;2024-01-07T07:37:20;2.20;99.90
5280;DHT22;2663;53.588;10.010;2024-01-07T07:39:47;2.20;99.90
5280;DHT22;2663;53.588;10.010;2024-01-07T07:42:14;2.20;99.90
5280;DHT22;2663;53.588;10.010;2024-01-07T07:44:41;2.00;99.90
5280;DHT22;2663;53.588;10.010;2024-01-07T07:47:08;2.00;99.90
5280;DHT22;2663;53.588;10.010;2024-01-07T07:49:38;2.00;99.90
5280;DHT22;2663;53.588;10.010;2024-01-07T07:52:10;2.00;99.90
5280;DHT22;2663;53.588;10.010;2024-01-07T07:54:37;2.10;99.90
5280;DHT22;2663;53.588;10.010;2024-01-07T07:57:04;2.10;99.90
5280;DHT22;2663;53.588;10.010;2024-01-07T07:59:31;2.10;99.90
5280;DHT22;2663;53.588;10.010;2024-01-07T08:01:58;2.10;99.90
5280;DHT22;2663;53.588;10.010;2024-01-07T08:04:26;1.90;99.90
5280;DHT22;2663;53.588;10.010;2024-01-07T08:06:53;2.00;99.90
5280;DHT22;2663;53.588;10.010;2024-01-07T08:09:23;1.90;99.90
5280;DHT22;2663;53.588;10.010;2024-01-07T08:11:51;1.90;99.90
5280;DHT22;2663;53.588;10.010;2024-01-07T08:14:18;1.90;99.90
5280;DHT22;2663;53.588;10.010;2024-01-07T08:16:45;1.80;99.90
5280;DHT22;2663;53.588;10.010;2024-01-07T08:19:12;1.70;99.90
5280;DHT22;2663;53.588;10.010;2024-01-07T08:21:39;1.90;99.90
5280;DHT22;2663;53.588;10.010;2024-01-07T08:24:06;1.70;99.90
5280;DHT22;2663;53.588;10.010;2024-01-07T08:26:32;0.90;99.90
5280;DHT22;2663;53.588;10.010;2024-01-07T08:28:59;1.80;99.90
5280;DHT22;2663;53.588;10.010;2024-01-07T08:31:26;1.70;99.90
5280;DHT22;2663;53.588;10.010;2024-01-07T08:33:53;1.70;99.90
5280;DHT22;2663;53.588;10.010;2024-01-07T08:36:20;1.80;99.90
5280;DHT22;2663;53.588;10.010;2024-01-07T08:38:46;1.80;99.90
5280;DHT22;2663;53.588;10.010;2024-01-07T08:41:15;1.80;99.90
5280;DHT22;2663;53.588;10.010;2024-01-07T08:43:42;1.70;99.90
5280;DHT22;2663;53.588;10.010;2024-01-07T08:46:10;1.70;99.90
5280;DHT22;2663;53.588;10.010;2024-01-07T08:48:37;1.70;99.90
5280;DHT22;2663;53.588;10.010;2024-01-07T08:51:05;2.00;99.90
5280;DHT22;2663;53.588;10.010;2024-01-07T08:53:32;1.70;99.90
5280;DHT22;2663;53.588;10.010;2024-01-07T08:55:59;1.60;99.90
5280;DHT22;2663;53.588;10.010;2024-01-07T08:58:25;1.50;99.90
5280;DHT22;2663;53.588;10.010;2024-01-07T09:00:52;1.50;99.90
5280;DHT22;2663;53.588;10.010;2024-01-07T09:03:19;1.50;99.90
5280;DHT22;2663;53.588;10.010;2024-01-07T09:05:45;1.60;99.90
5280;DHT22;2663;53.588;10.010;2024-01-07T09:08:12;1.50;99.90
5280;DHT22;2663;53.588;10.010;2024-01-07T09:10:41;1.50;99.90
5280;DHT22;2663;53.588;10.010;2024-01-07T09:13:07;1.60;99.90
5280;DHT22;2663;53.588;10.010;2024-01-07T09:15:34;1.50;99.90
5280;DHT22;2663;53.588;10.010;2024-01-07T09:18:01;1.50;99.90
5280;DHT22;2663;53.588;10.010;2024-01-07T09:20:29;1.50;99.90
5280;DHT22;2663;53.588;10.010;2024-01-07T09:22:56;1.50;99.90
5280;DHT22;2663;53.588;10.010;2024-01-07T09:25:23;1.30;99.90
5280;DHT22;2663;53.588;10.010;2024-01-07T09:27:49;1.30;99.90
5280;DHT22;2663;53.588;10.010;2024-01-07T09:30:17;1.30;99.90
5280;DHT22;2663;53.588;10.010;2024-01-07T09:32:44;1.20;99.90
5280;DHT22;2663;53.588;10.010;2024-01-07T09:35:11;1.30;99.90
5280;DHT22;2663;53.588;10.010;2024-01-07T09:37:37;1.30;99.90
5280;DHT22;2663;53.588;10.010;2024-01-07T09:40:04;1.30;99.90
5280;DHT22;2663;53.588;10.010;2024-01-07T09:42:33;1.30;99.90
5280;DHT22;2663;53.588;10.010;2024-01-07T09:45:03;1.30;99.90
5280;DHT22;2663;53.588;10.010;2024-01-07T09:47:31;1.20;99.90
5280;DHT22;2663;53.588;10.010;2024-01-07T09:49:58;1.30;99.90
5280;DHT22;2663;53.588;10.010;2024-01-07T09:52:25;1.30;99.90
5280;DHT22;2663;53.588;10.010;2024-01-07T09:54:57;1.30;99.90
5280;DHT22;2663;53.588;10.010;2024-01-07T09:57:25;1.20;99.90
5280;DHT22;2663;53.588;10.010;2024-01-07T09:59:52;1.30;99.90
5280;DHT22;2663;53.588;10.010;2024-01-07T10:02:19;1.60;99.90
5280;DHT22;2663;53.588;10.010;2024-01-07T10:04:47;1.50;99.90
5280;DHT22;2663;53.588;10.010;2024-01-07T10:07:15;1.50;99.90
5280;DHT22;2663;53.588;10.010;2024-01-07T10:09:43;1.50;99.90
5280;DHT22;2663;53.588;10.010;2024-01-07T10:12:10;1.40;99.90
5280;DHT22;2663;53.588;10.010;2024-01-07T10:14:39;1.40;99.90
5280;DHT22;2663;53.588;10.010;2024-01-07T10:17:18;1.40;99.90
5280;DHT22;2663;53.588;10.010;2024-01-07T10:19:45;1.50;99.90
5280;DHT22;2663;53.588;10.010;2024-01-07T10:22:15;1.60;99.90
5280;DHT22;2663;53.588;10.010;2024-01-07T10:24:43;1.70;99.90
5280;DHT22;2663;53.588;10.010;2024-01-07T10:27:13;1.60;99.90
5280;DHT22;2663;53.588;10.010;2024-01-07T10:29:40;1.60;99.90
5280;DHT22;2663;53.588;10.010;2024-01-07T10:32:07;1.80;99.90
5280;DHT22;2663;53.588;10.010;2024-01-07T10:34:35;2.60;99.90
5280;DHT22;2663;53.588;10.010;2024-01-07T10:37:04;3.00;99.90
5280;DHT22;2663;53.588;10.010;2024-01-07T10:39:34;1.80;99.90
5280;DHT22;2663;53.588;10.010;2024-01-07T10:42:02;3.00;99.90
5280;DHT22;2663;53.588;10.010;2024-01-07T10:44:31;2.70;99.90
5280;DHT22;2663;53.588;10.010;2024-01-07T10:46:59;2.40;99.90
5280;DHT22;2663;53.588;10.010;2024-01-07T10:49:27;2.10;99.90
5280;DHT22;2663;53.588;10.010;2024-01-07T10:54:35;1.80;99.90
5280;DHT22;2663;53.588;10.010;2024-01-07T10:57:09;1.50;99.90
5280;DHT22;2663;53.588;10.010;2024-01-07T10:59:38;1.50;99.90
5280;DHT22;2663;53.588;10.010;2024-01-07T11:02:08;1.50;99.90
5280;DHT22;2663;53.588;10.010;2024-01-07T11:07:29;1.40;99.90
5280;DHT22;2663;53.588;10.010;2024-01-07T11:10:12;1.30;99.90
5280;DHT22;2663;53.588;10.010;2024-01-07T11:12:40;1.30;99.90
5280;DHT22;2663;53.588;10.010;2024-01-07T11:15:07;1.30;99.90
5280;DHT22;2663;53.588;10.010;2024-01-07T11:20:12;1.30;99.90
5280;DHT22;2663;53.588;10.010;2024-01-07T11:22:39;1.50;99.90
5280;DHT22;2663;53.588;10.010;2024-01-07T11:25:29;1.50;99.90
5280;DHT22;2663;53.588;10.010;2024-01-07T11:27:58;1.40;99.90
5280;DHT22;2663;53.588;10.010;2024-01-07T11:30:26;1.10;99.90
5280;DHT22;2663;53.588;10.010;2024-01-07T11:32:58;1.10;99.90
5280;DHT22;2663;53.588;10.010;2024-01-07T11:35:54;1.20;99.90
5280;DHT22;2663;53.588;10.010;2024-01-07T11:38:22;1.20;99.90
5280;DHT22;2663;53.588;10.010;2024-01-07T11:40:50;1.70;99.90
5280;DHT22;2663;53.588;10.010;2024-01-07T11:43:17;1.70;99.90
5280;DHT22;2663;53.588;10.010;2024-01-07T11:45:45;1.60;99.90
5280;DHT22;2663;53.588;10.010;2024-01-07T11:48:12;1.50;99.90
5280;DHT22;2663;53.588;10.010;2024-01-07T11:50:39;1.30;99.90
5280;DHT22;2663;53.588;10.010;2024-01-07T11:53:06;1.30;99.90
5280;DHT22;2663;53.588;10.010;2024-01-07T11:55:33;1.20;99.90
5280;DHT22;2663;53.588;10.010;2024-01-07T11:58:01;1.40;99.90
5280;DHT22;2663;53.588;10.010;2024-01-07T12:00:33;1.50;99.90
5280;DHT22;2663;53.588;10.010;2024-01-07T12:03:00;1.60;99.90
5280;DHT22;2663;53.588;10.010;2024-01-07T12:05:30;1.60;99.90
5280;DHT22;2663;53.588;10.010;2024-01-07T12:07:59;1.60;99.90
5280;DHT22;2663;53.588;10.010;2024-01-07T12:10:26;1.50;99.90
5280;DHT22;2663;53.588;10.010;2024-01-07T12:12:53;1.50;99.90
5280;DHT22;2663;53.588;10.010;2024-01-07T12:15:21;1.40;99.90
5280;DHT22;2663;53.588;10.010;2024-01-07T12:17:57;1.00;99.90
5280;DHT22;2663;53.588;10.010;2024-01-07T12:20:25;1.30;99.90
5280;DHT22;2663;53.588;10.010;2024-01-07T12:22:55;1.20;99.90
5280;DHT22;2663;53.588;10.010;2024-01-07T12:25:22;1.40;99.90
5280;DHT22;2663;53.588;10.010;2024-01-07T12:27:51;1.50;99.90
5280;DHT22;2663;53.588;10.010;2024-01-07T12:30:20;-0.30;99.90
5280;DHT22;2663;53.588;10.010;2024-01-07T12:32:47;1.80;99.90
5280;DHT22;2663;53.588;10.010;2024-01-07T12:35:14;1.80;99.90
5280;DHT22;2663;53.588;10.010;2024-01-07T12:37:42;1.80;99.90
5280;DHT22;2663;53.588;10.010;2024-01-07T12:40:10;1.90;99.90
5280;DHT22;2663;53.588;10.010;2024-01-07T12:42:38;1.70;99.90
5280;DHT22;2663;53.588;10.010;2024-01-07T12:45:13;1.60;99.90
5280;DHT22;2663;53.588;10.010;2024-01-07T12:47:42;1.70;99.90
5280;DHT22;2663;53.588;10.010;2024-01-07T12:50:10;2.00;99.90
5280;DHT22;2663;53.588;10.010;2024-01-07T12:52:37;1.70;99.90
5280;DHT22;2663;53.588;10.010;2024-01-07T12:55:07;3.30;99.90
5280;DHT22;2663;53.588;10.010;2024-01-07T12:57:35;1.70;99.90
5280;DHT22;2663;53.588;10.010;2024-01-07T13:00:03;1.50;99.90
5280;DHT22;2663;53.588;10.010;2024-01-07T13:02:33;1.60;99.90
5280;DHT22;2663;53.588;10.010;2024-01-07T13:05:01;1.50;99.90
5280;DHT22;2663;53.588;10.010;2024-01-07T13:07:29;2.90;99.90
5280;DHT22;2663;53.588;10.010;2024-01-07T13:09:56;1.40;99.90
5280;DHT22;2663;53.588;10.010;2024-01-07T13:12:23;1.60;99.90
5280;DHT22;2663;53.588;10.010;2024-01-07T13:15:02;2.60;99.90
5280;DHT22;2663;53.588;10.010;2024-01-07T13:17:29;1.50;99.90
5280;DHT22;2663;53.588;10.010;2024-01-07T13:19:57;1.20;99.90
5280;DHT22;2663;53.588;10.010;2024-01-07T13:22:24;1.10;99.90
5280;DHT22;2663;53.588;10.010;2024-01-07T13:24:51;1.20;99.90
5280;DHT22;2663;53.588;10.010;2024-01-07T13:27:18;1.00;99.90
5280;DHT22;2663;53.588;10.010;2024-01-07T13:29:45;0.90;99.90
5280;DHT22;2663;53.588;10.010;2024-01-07T13:32:14;0.90;99.90
5280;DHT22;2663;53.588;10.010;2024-01-07T13:34:44;0.90;99.90
5280;DHT22;2663;53.588;10.010;2024-01-07T13:37:11;0.80;99.90
5280;DHT22;2663;53.588;10.010;2024-01-07T13:39:38;2.20;99.90
5280;DHT22;2663;53.588;10.010;2024-01-07T13:42:05;0.90;99.90
5280;DHT22;2663;53.588;10.010;2024-01-07T13:44:32;1.10;99.90
5280;DHT22;2663;53.588;10.010;2024-01-07T13:47:01;1.00;99.90
5280;DHT22;2663;53.588;10.010;2024-01-07T13:49:32;0.90;99.90
5280;DHT22;2663;53.588;10.010;2024-01-07T13:51:59;1.00;99.90
5280;DHT22;2663;53.588;10.010;2024-01-07T13:54:26;1.20;99.90
5280;DHT22;2663;53.588;10.010;2024-01-07T13:56:53;1.10;99.90
5280;DHT22;2663;53.588;10.010;2024-01-07T13:59:20;1.00;99.90
5280;DHT22;2663;53.588;10.010;2024-01-07T14:01:49;0.80;99.90
5280;DHT22;2663;53.588;10.010;2024-01-07T14:04:16;1.00;99.90
5280;DHT22;2663;53.588;10.010;2024-01-07T14:06:43;2.90;99.90
5280;DHT22;2663;53.588;10.010;2024-01-07T14:09:10;0.60;99.90
5280;DHT22;2663;53.588;10.010;2024-01-07T14:11:38;0.80;99.90
5280;DHT22;2663;53.588;10.010;2024-01-07T14:14:04;0.90;99.90
5280;DHT22;2663;53.588;10.010;2024-01-07T14:16:31;0.80;99.90
5280;DHT22;2663;53.588;10.010;2024-01-07T14:18:58;0.60;99.90
5280;DHT22;2663;53.588;10.010;2024-01-07T14:21:25;0.60;99.90
5280;DHT22;2663;53.588;10.010;2024-01-07T14:23:52;0.50;99.90
5280;DHT22;2663;53.588;10.010;2024-01-07T14:26:19;0.60;99.90
5280;DHT22;2663;53.588;10.010;2024-01-07T14:28:50;0.20;99.90
5280;DHT22;2663;53.588;10.010;2024-01-07T14:31:39;0.20;99.90
5280;DHT22;2663;53.588;10.010;2024-01-07T14:34:05;0.10;99.90
5280;DHT22;2663;53.588;10.010;2024-01-07T14:36:33;0.20;99.90
5280;DHT22;2663;53.588;10.010;2024-01-07T14:38:59;0.20;99.90
5280;DHT22;2663;53.588;10.010;2024-01-07T14:41:26;0.10;99.90
5280;DHT22;2663;53.588;10.010;2024-01-07T14:43:53;0.00;99.90
5280;DHT22;2663;53.588;10.010;2024-01-07T14:46:20;0.00;99.90
5280;DHT22;2663;53.588;10.010;2024-01-07T14:48:47;0.00;99.90
5280;DHT22;2663;53.588;10.010;2024-01-07T14:51:14;0.10;99.90
5280;DHT22;2663;53.588;10.010;2024-01-07T14:53:41;0.20;99.90
5280;DHT22;2663;53.588;10.010;2024-01-07T14:56:08;0.30;99.90
5280;DHT22;2663;53.588;10.010;2024-01-07T14:58:35;0.30;99.90
5280;DHT22;2663;53.588;10.010;2024-01-07T15:01:02;0.20;99.90
5280;DHT22;2663;53.588;10.010;2024-01-07T15:03:29;0.60;99.90
5280;DHT22;2663;53.588;10.010;2024-01-07T15:05:56;0.00;99.90
5280;DHT22;2663;53.588;10.010;2024-01-07T15:08:23;0.00;99.90
5280;DHT22;2663;53.588;10.010;2024-01-07T15:10:50;0.20;99.90
5280;DHT22;2663;53.588;10.010;2024-01-07T15:13:17;0.20;99.90
5280;DHT22;2663;53.588;10.010;2024-01-07T15:15:47;0.30;99.90
5280;DHT22;2663;53.588;10.010;2024-01-07T15:18:14;0.40;99.90
5280;DHT22;2663;53.588;10.010;2024-01-07T15:20:41;0.30;99.90
5280;DHT22;2663;53.588;10.010;2024-01-07T15:23:07;0.30;99.90
5280;DHT22;2663;53.588;10.010;2024-01-07T15:25:34;0.20;99.90
5280;DHT22;2663;53.588;10.010;2024-01-07T15:28:01;0.10;99.90
5280;DHT22;2663;53.588;10.010;2024-01-07T15:30:28;0.00;99.90
5280;DHT22;2663;53.588;10.010;2024-01-07T15:32:55;-0.10;99.90
5280;DHT22;2663;53.588;10.010;2024-01-07T15:35:21;-0.10;99.90
5280;DHT22;2663;53.588;10.010;2024-01-07T15:37:48;-0.10;99.90
5280;DHT22;2663;53.588;10.010;2024-01-07T15:40:15;-0.20;99.90
5280;DHT22;2663;53.588;10.010;2024-01-07T15:42:42;-0.30;99.90
5280;DHT22;2663;53.588;10.010;2024-01-07T15:45:09;-0.40;99.90
5280;DHT22;2663;53.588;10.010;2024-01-07T15:47:35;-0.60;99.90
5280;DHT22;2663;53.588;10.010;2024-01-07T15:50:06;-0.80;99.90
5280;DHT22;2663;53.588;10.010;2024-01-07T15:52:33;-0.80;99.90
5280;DHT22;2663;53.588;10.010;2024-01-07T15:55:00;-0.70;99.90
5280;DHT22;2663;53.588;10.010;2024-01-07T15:57:26;-0.60;99.90
5280;DHT22;2663;53.588;10.010;2024-01-07T15:59:53;-0.60;99.90
5280;DHT22;2663;53.588;10.010;2024-01-07T16:02:20;-0.60;99.90
5280;DHT22;2663;53.588;10.010;2024-01-07T16:04:47;-0.80;99.90
5280;DHT22;2663;53.588;10.010;2024-01-07T16:07:13;-0.70;99.90
5280;DHT22;2663;53.588;10.010;2024-01-07T16:09:40;-0.60;99.90